createdAt,value
2022-11-03T00:02:11.712Z,50.30
2022-11-03T00:04:43.412Z,50.33
2022-11-03T00:07:10.258Z,50.30
2022-11-03T00:09:36.781Z,50.55
2022-11-03T00:12:03.475Z,50.53
2022-11-03T00:14:31.230Z,50.26
2022-11-03T00:16:57.712Z,50.48
2022-11-03T00:19:24.172Z,50.24
2022-11-03T00:21:50.779Z,50.44
2022-11-03T00:24:18.451Z,50.36
2022-11-03T00:26:44.920Z,50.23
2022-11-03T00:29:13.264Z,50.33
2022-11-03T00:31:42.005Z,50.57
2022-11-03T00:34:12.407Z,50.30
2022-11-03T00:36:41.418Z,50.67
2022-11-03T00:39:08.623Z,50.64
2022-11-03T00:41:35.643Z,50.58
2022-11-03T00:44:02.230Z,50.51
2022-11-03T00:46:30.328Z,50.28
2022-11-03T00:48:56.804Z,50.76
2022-11-03T00:51:26.307Z,50.46
2022-11-03T00:53:53.917Z,50.85
2022-11-03T00:56:23.685Z,50.84
2022-11-03T00:58:51.607Z,50.38
2022-11-03T01:01:20.477Z,50.63
2022-11-03T01:04:29.109Z,50.59
2022-11-03T01:06:57.496Z,50.60
2022-11-03T01:09:45.789Z,50.54
2022-11-03T01:12:18.050Z,50.52
2022-11-03T01:14:52.596Z,50.47
2022-11-03T01:17:25.037Z,50.55
2022-11-03T01:19:51.781Z,50.65
2022-11-03T01:22:19.513Z,50.86
2022-11-03T01:24:48.036Z,50.90
2022-11-03T01:27:18.368Z,50.88
2022-11-03T01:29:44.977Z,50.97
2022-11-03T01:32:12.179Z,50.83
2022-11-03T01:34:40.702Z,50.99
2022-11-03T01:37:07.543Z,51.12
2022-11-03T01:39:34.314Z,51.01
2022-11-03T01:42:00.926Z,51.05
2022-11-03T01:44:36.899Z,51.20
2022-11-03T01:47:11.923Z,51.19
2022-11-03T01:49:46.921Z,51.46
2022-11-03T01:52:36.151Z,51.80
2022-11-03T01:55:13.398Z,51.48
2022-11-03T01:57:53.961Z,51.62
2022-11-03T02:00:21.276Z,51.29
2022-11-03T02:02:47.872Z,51.71
2022-11-03T02:05:21.763Z,51.38
2022-11-03T02:07:55.929Z,51.48
2022-11-03T02:10:23.825Z,51.39
2022-11-03T02:12:50.583Z,51.62
2022-11-03T02:15:24.281Z,51.69
2022-11-03T02:17:54.031Z,51.46
2022-11-03T02:20:32.485Z,51.51
2022-11-03T02:23:20.184Z,51.69
2022-11-03T02:25:58.045Z,51.62
2022-11-03T02:28:30.406Z,51.53
2022-11-03T02:31:08.286Z,51.81
2022-11-03T02:33:38.000Z,51.74
2022-11-03T02:36:18.961Z,51.54
2022-11-03T02:38:53.727Z,51.76
2022-11-03T02:41:21.786Z,51.75
2022-11-03T02:43:49.157Z,51.70
2022-11-03T02:46:18.467Z,52.16
2022-11-03T02:48:45.304Z,52.27
2022-11-03T02:51:12.076Z,52.06
2022-11-03T02:53:45.768Z,52.13
2022-11-03T02:56:19.551Z,52.25
2022-11-03T02:59:02.758Z,52.04
2022-11-03T03:01:29.309Z,51.91
2022-11-03T03:04:20.989Z,52.34
2022-11-03T03:07:04.599Z,52.20
2022-11-03T03:09:37.338Z,52.04
2022-11-03T03:12:06.675Z,52.00
2022-11-03T03:14:38.732Z,52.24
2022-11-03T03:17:14.069Z,52.40
2022-11-03T03:19:48.219Z,52.17
2022-11-03T03:22:19.436Z,52.11
2022-11-03T03:24:58.456Z,51.99
2022-11-03T03:27:29.578Z,52.14
2022-11-03T03:30:01.214Z,52.10
2022-11-03T03:32:33.205Z,52.27
2022-11-03T03:35:01.900Z,52.41
2022-11-03T03:37:31.307Z,52.56
2022-11-03T03:40:00.880Z,52.37
2022-11-03T03:42:29.422Z,52.47
2022-11-03T03:44:57.337Z,52.85
2022-11-03T03:47:29.530Z,52.48
2022-11-03T03:49:56.799Z,52.63
2022-11-03T03:52:23.933Z,52.66
2022-11-03T03:54:55.648Z,52.53
2022-11-03T03:57:24.223Z,52.85
2022-11-03T03:59:50.866Z,53.06
2022-11-03T04:02:17.708Z,52.81
2022-11-03T04:04:48.244Z,52.64
2022-11-03T04:07:33.472Z,52.87
2022-11-03T04:09:59.946Z,52.54
2022-11-03T04:12:44.846Z,52.92
2022-11-03T04:15:33.698Z,52.63
2022-11-03T04:18:18.723Z,52.56
2022-11-03T04:21:03.833Z,52.70
2022-11-03T04:23:30.357Z,52.80
2022-11-03T04:25:59.123Z,52.57
2022-11-03T04:28:27.940Z,52.78
2022-11-03T04:30:59.432Z,52.57
2022-11-03T04:33:26.461Z,52.68
2022-11-03T04:35:55.427Z,52.87
2022-11-03T04:38:24.053Z,52.59
2022-11-03T04:40:55.443Z,52.64
2022-11-03T04:43:29.892Z,52.94
2022-11-03T04:45:56.451Z,53.09
2022-11-03T04:48:23.812Z,52.74
2022-11-03T04:50:54.144Z,52.88
2022-11-03T04:53:22.165Z,52.91
2022-11-03T04:55:54.161Z,53.04
2022-11-03T04:58:26.920Z,52.79
2022-11-03T05:00:59.295Z,52.91
2022-11-03T05:03:29.952Z,53.25
2022-11-03T05:05:57.504Z,53.04
2022-11-03T05:08:24.948Z,52.94
2022-11-03T05:10:51.654Z,53.04
2022-11-03T05:13:24.581Z,53.33
2022-11-03T05:16:03.557Z,53.38
2022-11-03T05:18:33.165Z,53.22
2022-11-03T05:21:02.693Z,53.21
2022-11-03T05:23:36.729Z,53.19
2022-11-03T05:26:06.191Z,53.26
2022-11-03T05:28:39.322Z,53.12
2022-11-03T05:31:21.288Z,53.39
2022-11-03T05:33:49.842Z,53.35
2022-11-03T05:36:22.201Z,53.46
2022-11-03T05:38:49.153Z,53.46
2022-11-03T05:41:23.412Z,53.50
2022-11-03T05:44:02.255Z,53.34
2022-11-03T05:46:32.842Z,53.67
2022-11-03T05:49:02.455Z,53.42
2022-11-03T05:51:41.717Z,53.21
2022-11-03T05:54:35.131Z,53.71
2022-11-03T05:57:01.628Z,53.43
2022-11-03T05:59:29.685Z,53.76
2022-11-03T06:01:59.917Z,53.83
2022-11-03T06:04:32.675Z,53.52
2022-11-03T06:07:03.252Z,53.90
2022-11-03T06:09:33.631Z,53.68
2022-11-03T06:12:05.667Z,53.91
2022-11-03T06:14:36.628Z,53.57
2022-11-03T06:17:10.363Z,53.78
2022-11-03T06:19:47.981Z,53.56
2022-11-03T06:22:20.586Z,54.05
2022-11-03T06:24:54.937Z,53.89
2022-11-03T06:27:26.272Z,53.59
2022-11-03T06:29:57.948Z,53.66
2022-11-03T06:32:25.030Z,53.95
2022-11-03T06:34:58.768Z,53.84
2022-11-03T06:37:32.735Z,54.04
2022-11-03T06:40:27.926Z,54.30
2022-11-03T06:42:56.262Z,53.83
2022-11-03T06:45:27.008Z,54.29
2022-11-03T06:47:54.142Z,54.27
2022-11-03T06:50:32.277Z,54.56
2022-11-03T06:53:01.624Z,54.12
2022-11-03T06:55:36.804Z,54.43
2022-11-03T06:58:12.127Z,54.33
2022-11-03T07:00:45.918Z,54.66
2022-11-03T07:03:27.150Z,54.26
2022-11-03T07:06:01.519Z,54.51
2022-11-03T07:08:36.048Z,54.51
2022-11-03T07:11:17.090Z,54.48
2022-11-03T07:13:44.131Z,54.35
2022-11-03T07:16:29.812Z,54.43
2022-11-03T07:19:00.039Z,54.55
2022-11-03T07:22:21.096Z,54.74
2022-11-03T07:24:54.213Z,54.64
2022-11-03T07:27:25.408Z,54.67
2022-11-03T07:29:57.702Z,54.64
2022-11-03T07:32:31.079Z,54.57
2022-11-03T07:35:04.968Z,54.71
2022-11-03T07:37:31.757Z,54.63
2022-11-03T07:39:59.259Z,54.70
2022-11-03T07:42:27.424Z,54.62
2022-11-03T07:44:59.630Z,54.54
2022-11-03T07:47:27.908Z,55.01
2022-11-03T07:49:55.848Z,54.86
2022-11-03T07:52:27.177Z,55.09
2022-11-03T07:54:56.857Z,54.49
2022-11-03T07:57:27.244Z,54.80
2022-11-03T08:00:08.890Z,54.98
2022-11-03T08:02:47.988Z,54.61
2022-11-03T08:05:16.021Z,54.46
2022-11-03T08:07:42.628Z,54.36
2022-11-03T08:10:09.667Z,54.96
2022-11-03T08:12:36.146Z,54.43
2022-11-03T08:15:07.326Z,54.47
2022-11-03T08:17:33.794Z,54.25
2022-11-03T08:20:00.293Z,54.50
2022-11-03T08:22:26.739Z,54.52
2022-11-03T08:24:57.492Z,54.69
2022-11-03T08:27:24.182Z,54.28
2022-11-03T08:29:50.667Z,54.58
2022-11-03T08:32:17.113Z,54.57
2022-11-03T08:34:44.568Z,54.32
2022-11-03T08:37:11.223Z,54.39
2022-11-03T08:39:37.766Z,54.49
2022-11-03T08:42:04.296Z,54.65
2022-11-03T08:44:32.307Z,54.38
2022-11-03T08:46:58.967Z,54.31
2022-11-03T08:49:25.418Z,54.42
2022-11-03T08:51:51.939Z,54.53
2022-11-03T08:54:21.964Z,54.21
2022-11-03T08:56:49.375Z,54.13
2022-11-03T08:59:17.993Z,54.33
2022-11-03T09:01:45.045Z,54.43
2022-11-03T09:04:15.679Z,54.19
2022-11-03T09:06:42.198Z,54.20
2022-11-03T09:11:55.118Z,54.10
2022-11-03T09:14:25.575Z,54.11
2022-11-03T09:16:52.094Z,53.77
2022-11-03T09:19:18.612Z,54.10
2022-11-03T09:21:45.064Z,53.96
2022-11-03T09:24:13.035Z,54.03
2022-11-03T09:26:39.523Z,54.00
2022-11-03T09:29:06.175Z,53.92
2022-11-03T09:31:32.643Z,53.63
2022-11-03T09:33:59.128Z,53.96
2022-11-03T09:36:32.666Z,53.89
2022-11-03T09:38:59.172Z,53.43
2022-11-03T09:41:28.205Z,53.73
2022-11-03T09:44:18.424Z,53.31
2022-11-03T09:46:44.941Z,53.07
2022-11-03T09:49:15.266Z,52.96
2022-11-03T09:51:43.052Z,53.29
2022-11-03T09:54:18.343Z,53.22
2022-11-03T09:56:47.056Z,53.21
2022-11-03T09:59:21.368Z,53.02
2022-11-03T10:01:50.952Z,52.97
2022-11-03T10:04:27.933Z,53.14
2022-11-03T10:06:56.102Z,53.03
2022-11-03T10:09:24.129Z,52.65
2022-11-03T10:11:53.042Z,52.86
2022-11-03T10:14:22.590Z,52.59
2022-11-03T10:16:53.977Z,52.79
2022-11-03T10:19:20.617Z,52.44
2022-11-03T10:21:47.432Z,52.17
2022-11-03T10:24:17.004Z,52.46
2022-11-03T10:26:57.376Z,52.12
2022-11-03T10:29:28.530Z,52.26
2022-11-03T10:31:58.390Z,51.93
2022-11-03T10:34:35.046Z,51.99
2022-11-03T10:37:25.672Z,51.77
2022-11-03T10:39:54.343Z,51.63
2022-11-03T10:42:22.341Z,51.63
2022-11-03T10:44:53.808Z,51.29
2022-11-03T10:47:26.124Z,51.56
2022-11-03T10:49:55.242Z,51.49
2022-11-03T10:52:24.542Z,51.00
2022-11-03T10:54:56.367Z,51.47
2022-11-03T10:57:24.100Z,51.22
2022-11-03T10:59:53.147Z,50.95
2022-11-03T11:02:22.244Z,51.00
2022-11-03T11:04:55.661Z,50.80
2022-11-03T11:07:26.911Z,51.04
2022-11-03T11:09:54.370Z,50.90
2022-11-03T11:12:25.441Z,50.80
2022-11-03T11:15:00.408Z,50.96
2022-11-03T11:17:39.096Z,50.70
2022-11-03T11:20:21.562Z,50.62
2022-11-03T11:22:49.700Z,50.76
2022-11-03T11:25:18.620Z,50.46
2022-11-03T11:27:45.059Z,50.16
2022-11-03T11:30:20.718Z,50.05
2022-11-03T11:32:49.906Z,50.13
2022-11-03T11:35:24.954Z,50.32
2022-11-03T11:37:52.064Z,49.94
2022-11-03T11:40:24.876Z,50.14
2022-11-03T11:43:06.905Z,50.01
2022-11-03T11:46:12.188Z,49.98
2022-11-03T11:48:38.738Z,49.32
2022-11-03T11:51:10.693Z,49.30
2022-11-03T11:53:42.268Z,49.31
2022-11-03T11:56:11.765Z,49.11
2022-11-03T11:58:42.941Z,49.28
2022-11-03T12:01:35.226Z,48.73
2022-11-03T12:04:05.435Z,48.97
2022-11-03T12:06:52.087Z,49.14
2022-11-03T12:09:20.719Z,48.59
2022-11-03T12:11:55.409Z,48.77
2022-11-03T12:14:32.672Z,48.50
2022-11-03T12:17:19.134Z,48.67
2022-11-03T12:19:55.034Z,48.29
2022-11-03T12:22:24.538Z,48.54
2022-11-03T12:24:58.983Z,48.49
2022-11-03T12:27:25.489Z,48.29
2022-11-03T12:29:54.068Z,48.32
2022-11-03T12:32:32.618Z,48.17
2022-11-03T12:35:08.123Z,48.37
2022-11-03T12:37:34.926Z,48.51
2022-11-03T12:40:01.406Z,48.09
2022-11-03T12:42:27.950Z,48.21
2022-11-03T12:44:56.045Z,48.16
2022-11-03T12:47:22.902Z,48.26
2022-11-03T12:49:49.431Z,48.09
2022-11-03T12:52:16.249Z,48.10
2022-11-03T12:54:44.481Z,48.07
2022-11-03T12:57:11.008Z,48.25
2022-11-03T12:59:37.480Z,48.17
2022-11-03T13:02:04.407Z,48.25
2022-11-03T13:04:32.818Z,48.31
2022-11-03T13:06:59.363Z,48.23
2022-11-03T13:09:26.032Z,48.01
2022-11-03T13:12:10.826Z,47.76
2022-11-03T13:14:38.813Z,48.09
2022-11-03T13:17:05.312Z,47.94
2022-11-03T13:19:31.917Z,47.69
2022-11-03T13:21:58.395Z,47.71
2022-11-03T13:24:28.810Z,47.71
2022-11-03T13:26:55.276Z,47.52
2022-11-03T13:29:21.765Z,47.48
2022-11-03T13:31:48.258Z,47.17
2022-11-03T13:34:16.023Z,47.22
2022-11-03T13:36:42.536Z,47.45
2022-11-03T13:39:08.983Z,47.18
2022-11-03T13:41:35.924Z,47.17
2022-11-03T13:44:02.966Z,47.19
2022-11-03T13:46:29.524Z,47.26
2022-11-03T13:51:42.602Z,47.21
2022-11-03T13:59:45.585Z,47.16
2022-11-03T14:05:06.993Z,47.24
2022-11-03T14:07:35.816Z,47.30
2022-11-03T14:10:04.338Z,47.57
2022-11-03T14:12:31.305Z,47.76
2022-11-03T14:15:06.192Z,47.92
2022-11-03T14:17:32.917Z,47.67
2022-11-03T14:20:04.220Z,48.11
2022-11-03T14:22:31.705Z,47.99
2022-11-03T14:24:59.031Z,48.34
2022-11-03T14:27:25.591Z,48.39
2022-11-03T14:29:52.169Z,48.67
2022-11-03T14:32:19.558Z,48.97
2022-11-03T14:34:48.097Z,49.18
2022-11-03T14:37:15.387Z,49.26
2022-11-03T14:39:42.103Z,49.58
2022-11-03T14:42:16.040Z,49.95
2022-11-03T14:44:47.738Z,50.58
2022-11-03T14:47:21.477Z,50.71
2022-11-03T14:49:48.974Z,50.98
2022-11-03T14:52:16.790Z,51.33
2022-11-03T14:54:48.261Z,51.82
2022-11-03T14:57:14.804Z,51.99
2022-11-03T14:59:41.717Z,52.39
2022-11-03T15:02:08.409Z,52.55
2022-11-03T15:04:39.021Z,52.43
2022-11-03T15:07:05.499Z,52.98
2022-11-03T15:09:31.987Z,53.00
2022-11-03T15:11:58.479Z,52.73
2022-11-03T15:14:24.981Z,53.16
2022-11-03T15:16:51.429Z,53.57
2022-11-03T15:19:17.909Z,53.67
2022-11-03T15:21:44.480Z,53.97
2022-11-03T15:27:01.777Z,54.22
2022-11-03T15:29:28.236Z,54.25
2022-11-03T15:31:54.675Z,54.23
2022-11-03T15:34:25.400Z,54.48
2022-11-03T15:36:51.884Z,54.29
2022-11-03T15:39:18.351Z,54.78
2022-11-03T15:41:44.925Z,55.04
2022-11-03T15:44:12.841Z,55.09
2022-11-03T15:46:39.291Z,54.88
2022-11-03T15:49:05.750Z,55.38
2022-11-03T15:51:32.226Z,55.53
2022-11-03T15:53:59.407Z,55.14
2022-11-03T15:56:29.685Z,55.43
2022-11-03T15:58:56.376Z,55.26
2022-11-03T16:01:22.939Z,55.57
2022-11-03T16:03:49.557Z,55.74
2022-11-03T16:06:17.422Z,55.59
2022-11-03T16:08:43.890Z,55.58
2022-11-03T16:11:10.437Z,55.78
2022-11-03T16:13:36.891Z,55.90
2022-11-03T16:16:04.328Z,55.93
2022-11-03T16:18:30.786Z,56.34
2022-11-03T16:20:57.281Z,56.49
2022-11-03T16:23:23.782Z,56.43
2022-11-03T16:25:50.321Z,56.18
2022-11-03T16:28:16.884Z,56.64
2022-11-03T16:30:43.377Z,56.61
2022-11-03T16:33:10.159Z,56.82
2022-11-03T16:35:40.565Z,56.76
2022-11-03T16:38:09.581Z,57.12
2022-11-03T16:40:36.252Z,57.38
2022-11-03T16:43:02.982Z,57.15
2022-11-03T16:45:37.263Z,57.32
2022-11-03T16:48:05.099Z,57.28
2022-11-03T16:50:32.475Z,57.04
2022-11-03T16:52:58.967Z,57.21
2022-11-03T16:55:29.131Z,57.25
2022-11-03T16:57:55.675Z,57.78
2022-11-03T17:00:23.979Z,57.54
2022-11-03T17:02:50.970Z,57.61
2022-11-03T17:05:19.124Z,58.11
2022-11-03T17:07:52.823Z,57.73
2022-11-03T17:10:20.253Z,58.24
2022-11-03T17:12:46.865Z,58.12
2022-11-03T17:15:15.237Z,58.27
2022-11-03T17:17:41.736Z,58.20
2022-11-03T17:20:10.582Z,58.54
2022-11-03T17:22:37.481Z,58.47
2022-11-03T17:25:06.788Z,58.38
2022-11-03T17:27:44.645Z,58.45
2022-11-03T17:30:17.037Z,58.59
2022-11-03T17:32:44.079Z,58.72
2022-11-03T17:35:38.674Z,59.05
2022-11-03T17:38:13.765Z,59.02
2022-11-03T17:40:42.766Z,58.72
2022-11-03T17:43:20.489Z,58.93
2022-11-03T17:45:48.475Z,58.77
2022-11-03T17:48:15.533Z,58.99
2022-11-03T17:50:47.853Z,59.40
2022-11-03T17:53:26.677Z,59.05
2022-11-03T17:58:47.254Z,59.18
2022-11-03T18:01:21.986Z,59.19
2022-11-03T18:03:48.695Z,59.56
2022-11-03T18:06:17.193Z,59.33
2022-11-03T18:08:44.539Z,59.24
2022-11-03T18:11:34.483Z,59.80
2022-11-03T18:14:02.633Z,59.62
2022-11-03T18:16:31.365Z,59.46
2022-11-03T18:18:58.449Z,59.55
2022-11-03T18:21:24.926Z,59.42
2022-11-03T18:23:51.425Z,59.21
2022-11-03T18:26:23.316Z,59.37
2022-11-03T18:28:50.478Z,59.66
2022-11-03T18:31:36.314Z,59.42
2022-11-03T18:34:09.144Z,59.16
2022-11-03T18:36:37.302Z,59.39
2022-11-03T18:39:04.519Z,59.19
2022-11-03T18:41:39.241Z,59.50
2022-11-03T18:44:22.295Z,59.42
2022-11-03T18:46:51.153Z,59.19
2022-11-03T18:49:18.879Z,59.31
2022-11-03T18:51:49.333Z,59.52
2022-11-03T18:54:22.991Z,59.22
2022-11-03T18:56:52.958Z,59.79
2022-11-03T18:59:23.999Z,59.52
2022-11-03T19:01:51.081Z,59.35
2022-11-03T19:04:19.784Z,59.57
2022-11-03T19:06:48.201Z,59.77
2022-11-03T19:09:20.813Z,60.00
2022-11-03T19:11:49.409Z,59.88
2022-11-03T19:14:25.188Z,59.53
2022-11-03T19:17:17.150Z,59.54
2022-11-03T19:19:39.818Z,59.70
2022-11-03T19:22:12.482Z,59.94
2022-11-03T19:24:41.398Z,59.90
2022-11-03T19:27:15.206Z,59.79
2022-11-03T19:29:42.464Z,59.93
2022-11-03T19:32:17.509Z,60.16
2022-11-03T19:34:45.089Z,59.82
2022-11-03T19:37:12.071Z,59.90
2022-11-03T19:39:40.999Z,59.75
2022-11-03T19:42:28.745Z,60.05
2022-11-03T19:45:02.324Z,59.92
2022-11-03T19:47:35.624Z,59.75
2022-11-03T19:50:04.184Z,59.63
2022-11-03T19:52:31.765Z,59.71
2022-11-03T19:55:05.678Z,59.96
2022-11-03T19:57:32.701Z,59.77
2022-11-03T19:59:59.467Z,59.79
2022-11-03T20:02:27.932Z,59.88
2022-11-03T20:04:58.949Z,60.18
2022-11-03T20:07:31.066Z,60.14
2022-11-03T20:09:58.708Z,59.87
2022-11-03T20:12:25.342Z,60.30
2022-11-03T20:14:51.812Z,59.89
2022-11-03T20:17:19.933Z,59.96
2022-11-03T20:19:46.422Z,59.82
2022-11-03T20:22:18.225Z,60.07
2022-11-03T20:24:46.515Z,60.17
2022-11-03T20:27:14.822Z,60.30
2022-11-03T20:29:41.475Z,60.22
2022-11-03T20:32:12.591Z,60.13
2022-11-03T20:34:40.976Z,59.97
2022-11-03T20:37:18.065Z,60.41
2022-11-03T20:39:45.832Z,60.00
2022-11-03T20:42:24.245Z,60.34
2022-11-03T20:44:52.581Z,60.19
2022-11-03T20:47:19.324Z,59.77
2022-11-03T20:49:45.928Z,60.22
2022-11-03T20:52:13.706Z,60.01
2022-11-03T20:54:44.744Z,59.83
2022-11-03T20:57:14.411Z,59.99
2022-11-03T20:59:41.424Z,59.86
2022-11-03T21:02:12.866Z,60.01
2022-11-03T21:04:40.644Z,59.73
2022-11-03T21:07:09.618Z,60.11
2022-11-03T21:09:36.064Z,60.12
2022-11-03T21:12:02.585Z,59.71
2022-11-03T21:14:31.342Z,60.20
2022-11-03T21:17:16.348Z,59.76
2022-11-03T21:20:07.822Z,60.13
2022-11-03T21:22:55.122Z,59.80
2022-11-03T21:25:24.707Z,60.18
2022-11-03T21:27:53.629Z,60.09
2022-11-03T21:30:20.576Z,59.93
2022-11-03T21:32:47.806Z,59.85
2022-11-03T21:35:17.675Z,59.75
2022-11-03T21:37:44.127Z,60.28
2022-11-03T21:40:11.408Z,60.03
2022-11-03T21:42:56.547Z,60.05
2022-11-03T21:45:25.075Z,60.05
2022-11-03T21:48:13.559Z,60.06
2022-11-03T21:50:41.278Z,60.12
2022-11-03T21:53:08.276Z,60.17
2022-11-03T21:55:40.126Z,60.49
2022-11-03T21:58:07.259Z,60.46
2022-11-03T22:00:34.452Z,60.44
2022-11-03T22:03:01.298Z,60.51
2022-11-03T22:05:29.415Z,60.70
2022-11-03T22:07:56.166Z,60.19
2022-11-03T22:10:22.966Z,60.26
2022-11-03T22:12:49.454Z,60.53
2022-11-03T22:15:35.471Z,60.70
2022-11-03T22:18:03.376Z,60.83
2022-11-03T22:20:48.129Z,60.49
2022-11-03T22:23:34.240Z,60.57
2022-11-03T22:26:19.789Z,60.79
2022-11-03T22:28:46.281Z,60.62
2022-11-03T22:31:31.048Z,60.46
2022-11-03T22:34:17.065Z,60.75
2022-11-03T22:36:43.549Z,60.70
2022-11-03T22:39:28.461Z,60.48
2022-11-03T22:42:13.232Z,60.76
2022-11-03T22:44:58.250Z,60.81
2022-11-03T22:47:26.723Z,60.71
2022-11-03T22:49:53.260Z,60.52
2022-11-03T22:52:19.704Z,60.40
2022-11-03T22:54:47.491Z,60.47
2022-11-03T22:57:13.945Z,60.40
2022-11-03T22:59:41.081Z,60.63
2022-11-03T23:02:07.753Z,60.44
2022-11-03T23:04:37.421Z,60.10
2022-11-03T23:07:03.873Z,60.24
2022-11-03T23:09:30.425Z,60.10
2022-11-03T23:11:56.885Z,60.28
2022-11-03T23:14:46.379Z,60.21
2022-11-03T23:17:12.821Z,60.03
2022-11-03T23:19:57.673Z,60.21
2022-11-03T23:22:24.144Z,60.71
2022-11-03T23:25:01.479Z,60.18
2022-11-03T23:27:28.588Z,60.15
2022-11-03T23:29:55.123Z,60.42
2022-11-03T23:32:21.646Z,60.22
2022-11-03T23:34:50.081Z,60.41
2022-11-03T23:37:16.563Z,60.06
2022-11-03T23:39:43.025Z,60.04
2022-11-03T23:42:09.557Z,60.30
2022-11-03T23:44:57.436Z,60.49
2022-11-03T23:47:42.386Z,60.09
2022-11-03T23:50:09.015Z,60.07
2022-11-03T23:52:35.478Z,60.52
2022-11-03T23:55:07.382Z,60.45
2022-11-03T23:57:52.811Z,60.33
